Time;durP1;ratioP1;P1;durP2;ratioP2;P2;SDS_P1;SDS_P2;PMS_P1;PMS_P2;Temp;Humidity;BMP_temperature;BMP_pressure;BME280_temperature;BME280_humidity;BME280_pressure;Samples;Min_cycle;Max_cycle;Signal;HPM_P1;HPM_P2
2021/01/25 00:01:38;;;;;;;6.37;4.70;;;2.80;79.40;;;;;;5042417;28;20204;-87
2021/01/25 00:04:04;;;;;;;5.47;4.80;;;2.70;80.10;;;;;;5057739;28;20204;-87
2021/01/25 00:06:32;;;;;;;5.77;5.00;;;2.60;79.50;;;;;;5062327;28;20200;-86
2021/01/25 00:09:00;;;;;;;5.67;5.00;;;2.50;79.00;;;;;;5048820;28;20189;-86
2021/01/25 00:11:29;;;;;;;7.63;5.63;;;2.50;79.30;;;;;;5043322;28;20203;-86
2021/01/25 00:13:54;;;;;;;5.47;4.93;;;2.50;80.10;;;;;;5020491;28;20252;-86
2021/01/25 00:16:20;;;;;;;5.60;4.87;;;2.50;79.40;;;;;;5006443;28;20580;-86
2021/01/25 00:18:46;;;;;;;6.43;4.47;;;2.40;79.30;;;;;;5042425;28;20196;-87
2021/01/25 00:21:13;;;;;;;6.73;5.17;;;2.50;79.80;;;;;;5023265;28;20660;-87
2021/01/25 00:23:39;;;;;;;5.07;4.30;;;2.50;80.20;;;;;;5024194;28;20217;-87
2021/01/25 00:26:04;;;;;;;6.93;4.73;;;2.40;81.60;;;;;;5042084;28;20255;-88
2021/01/25 00:28:30;;;;;;;6.97;4.83;;;2.30;82.10;;;;;;5040011;28;20184;-88
2021/01/25 00:30:56;;;;;;;5.57;4.27;;;2.30;80.80;;;;;;5024064;28;20181;-88
2021/01/25 00:33:21;;;;;;;5.50;4.77;;;2.30;80.40;;;;;;5041308;28;20671;-88
2021/01/25 00:35:48;;;;;;;4.63;4.23;;;2.30;80.80;;;;;;5043575;28;20835;-87
2021/01/25 00:38:14;;;;;;;5.00;4.23;;;2.30;81.20;;;;;;5026176;28;20185;-88
2021/01/25 00:40:41;;;;;;;4.97;4.47;;;2.30;81.30;;;;;;5043035;28;20188;-88
2021/01/25 00:43:07;;;;;;;5.30;4.60;;;2.40;80.50;;;;;;5056801;28;20177;-89
2021/01/25 00:45:33;;;;;;;5.67;4.73;;;2.50;80.50;;;;;;5041328;28;20177;-88
2021/01/25 00:47:59;;;;;;;5.67;5.10;;;2.60;79.50;;;;;;5040385;28;20204;-88
2021/01/25 00:50:25;;;;;;;6.17;4.30;;;2.60;78.30;;;;;;5025906;28;20197;-88
2021/01/25 00:52:51;;;;;;;5.10;4.50;;;2.60;79.60;;;;;;5045275;28;20192;-89
2021/01/25 00:55:16;;;;;;;6.00;4.80;;;2.60;80.50;;;;;;5026977;28;20193;-89
2021/01/25 00:57:43;;;;;;;5.30;4.40;;;2.60;80.70;;;;;;5044647;28;20208;-89
2021/01/25 01:00:10;;;;;;;5.77;4.77;;;2.60;80.10;;;;;;5044421;28;20181;-88
2021/01/25 01:02:37;;;;;;;6.33;4.43;;;2.50;81.50;;;;;;5044473;28;20181;-89
2021/01/25 01:05:04;;;;;;;4.70;4.10;;;2.30;81.80;;;;;;5044973;28;20346;-88
2021/01/25 01:07:30;;;;;;;4.60;4.20;;;2.30;82.00;;;;;;5065509;28;20168;-89
2021/01/25 01:09:56;;;;;;;5.87;3.87;;;2.30;82.30;;;;;;5064348;28;20211;-88
2021/01/25 01:12:23;;;;;;;5.47;3.80;;;2.30;82.00;;;;;;5064110;28;20188;-88
2021/01/25 01:14:49;;;;;;;4.77;3.70;;;2.40;82.60;;;;;;5046258;28;20227;-88
2021/01/25 01:17:14;;;;;;;4.40;3.80;;;2.50;81.50;;;;;;5064081;28;20226;-89
2021/01/25 01:19:40;;;;;;;5.17;4.20;;;2.40;81.00;;;;;;5063897;28;20191;-89
2021/01/25 01:22:06;;;;;;;4.97;3.97;;;2.30;82.30;;;;;;5064612;28;20578;-88
2021/01/25 01:24:32;;;;;;;4.77;4.07;;;2.30;83.00;;;;;;5064102;28;20224;-88
2021/01/25 01:26:57;;;;;;;5.17;3.80;;;2.30;82.90;;;;;;5046301;28;20181;-88
2021/01/25 01:29:23;;;;;;;5.27;4.10;;;2.40;82.70;;;;;;5064600;28;20211;-89
2021/01/25 01:31:49;;;;;;;3.60;3.20;;;2.60;82.20;;;;;;5046077;28;20185;-88
2021/01/25 01:34:14;;;;;;;3.40;3.10;;;2.60;81.40;;;;;;5044236;28;20258;-88
2021/01/25 01:36:40;;;;;;;3.90;3.20;;;2.60;81.60;;;;;;5043528;28;20311;-88
2021/01/25 01:39:06;;;;;;;4.70;4.30;;;2.70;79.70;;;;;;5044017;28;20189;-88
2021/01/25 01:41:36;;;;;;;5.07;3.80;;;2.70;81.30;;;;;;5043484;28;20193;-87
2021/01/25 01:44:04;;;;;;;3.93;3.50;;;2.60;81.70;;;;;;5044129;28;20217;-88
2021/01/25 01:46:30;;;;;;;4.43;3.47;;;2.60;82.60;;;;;;5055895;28;20730;-88
2021/01/25 01:48:56;;;;;;;3.60;3.30;;;2.70;83.20;;;;;;5063759;28;20216;-88
2021/01/25 01:51:22;;;;;;;4.17;3.03;;;2.70;81.30;;;;;;5063678;28;20185;-88
2021/01/25 01:53:47;;;;;;;5.37;3.70;;;2.60;80.40;;;;;;5045389;28;20211;-89
2021/01/25 01:56:13;;;;;;;4.17;3.23;;;2.50;82.10;;;;;;5027094;28;20228;-88
2021/01/25 01:58:41;;;;;;;4.37;3.53;;;2.60;82.60;;;;;;5044839;28;20263;-88
2021/01/25 02:01:07;;;;;;;3.83;3.53;;;2.70;80.90;;;;;;5048888;28;20177;-88
2021/01/25 02:03:34;;;;;;;4.13;3.27;;;2.70;81.10;;;;;;5025265;28;20232;-89
2021/01/25 02:06:03;;;;;;;4.10;3.73;;;2.80;81.50;;;;;;5043502;28;20177;-88
2021/01/25 02:08:30;;;;;;;3.87;3.33;;;2.80;81.30;;;;;;5043509;28;20216;-89
2021/01/25 02:10:57;;;;;;;3.70;3.27;;;2.80;82.40;;;;;;5025850;28;20250;-88
2021/01/25 02:13:23;;;;;;;3.93;3.53;;;2.80;81.40;;;;;;5042981;28;20197;-88
2021/01/25 02:15:51;;;;;;;4.43;3.97;;;2.80;82.00;;;;;;5043566;28;20157;-88
2021/01/25 02:18:17;;;;;;;5.10;4.53;;;2.70;82.00;;;;;;5044638;28;20273;-88
2021/01/25 02:20:45;;;;;;;4.77;3.87;;;2.70;80.30;;;;;;5043411;28;20177;-88
2021/01/25 02:23:23;;;;;;;5.07;4.40;;;2.60;81.00;;;;;;5042866;28;20192;-88
2021/01/25 02:26:02;;;;;;;6.67;4.03;;;2.60;81.00;;;;;;5043507;28;20179;-89
2021/01/25 02:28:30;;;;;;;4.50;4.07;;;2.60;81.90;;;;;;5026003;28;20212;-89
2021/01/25 02:30:56;;;;;;;4.10;3.70;;;2.60;81.40;;;;;;5045120;28;20203;-88
2021/01/25 02:33:22;;;;;;;4.83;4.33;;;2.60;82.30;;;;;;5062274;28;20177;-88
2021/01/25 02:35:48;;;;;;;4.10;3.70;;;2.60;82.70;;;;;;5063210;28;20204;-88
2021/01/25 02:38:17;;;;;;;4.43;4.03;;;2.70;82.70;;;;;;5062780;28;20210;-88
2021/01/25 02:40:48;;;;;;;4.70;3.53;;;2.70;82.50;;;;;;5062930;28;20184;-88
2021/01/25 02:43:14;;;;;;;4.27;3.47;;;2.80;82.70;;;;;;5063260;28;20180;-88
2021/01/25 02:45:41;;;;;;;5.30;3.70;;;2.80;82.10;;;;;;5062860;28;20278;-89
2021/01/25 02:48:08;;;;;;;3.80;3.50;;;2.80;82.50;;;;;;5062563;28;20746;-88
2021/01/25 02:50:35;;;;;;;4.93;3.87;;;2.80;82.70;;;;;;5062826;28;20176;-88
2021/01/25 02:53:01;;;;;;;4.37;3.90;;;2.70;82.80;;;;;;5063162;28;20207;-89
2021/01/25 02:55:27;;;;;;;4.10;3.70;;;2.70;83.30;;;;;;5062691;28;20189;-88
2021/01/25 02:57:56;;;;;;;4.07;3.67;;;2.70;83.50;;;;;;5030985;28;20205;-88
2021/01/25 03:00:22;;;;;;;4.03;3.60;;;2.60;83.90;;;;;;5027226;28;20183;-86
2021/01/25 03:02:48;;;;;;;4.33;3.60;;;2.70;84.30;;;;;;5042849;28;20189;-88
2021/01/25 03:05:14;;;;;;;3.40;3.10;;;2.50;85.80;;;;;;5043047;28;20868;-88
2021/01/25 03:07:42;;;;;;;3.83;3.33;;;2.50;86.40;;;;;;5043266;28;20185;-86
2021/01/25 03:10:08;;;;;;;3.73;3.40;;;2.40;86.80;;;;;;5042571;28;20173;-87
2021/01/25 03:12:34;;;;;;;4.23;3.10;;;2.40;87.20;;;;;;5042510;28;20733;-86
2021/01/25 03:15:00;;;;;;;3.90;2.97;;;2.50;87.70;;;;;;5043004;28;20220;-88
2021/01/25 03:17:25;;;;;;;4.80;3.40;;;2.60;87.50;;;;;;5055254;28;20199;-87
2021/01/25 03:19:51;;;;;;;3.27;3.00;;;2.60;87.30;;;;;;5062916;28;20185;-86
2021/01/25 03:22:17;;;;;;;3.23;2.97;;;2.60;87.70;;;;;;5062369;28;20199;-84
2021/01/25 03:24:42;;;;;;;3.83;2.80;;;2.50;88.00;;;;;;5067019;28;20294;-85
2021/01/25 03:27:08;;;;;;;3.17;2.87;;;2.40;88.80;;;;;;5061903;28;20181;-88
2021/01/25 03:29:34;;;;;;;2.90;2.70;;;2.40;89.00;;;;;;5060538;28;20256;-86
2021/01/25 03:32:00;;;;;;;3.37;2.93;;;2.40;89.50;;;;;;5059995;28;20177;-87
2021/01/25 03:34:26;;;;;;;3.20;2.90;;;2.20;90.70;;;;;;5060675;28;20203;-87
2021/01/25 03:36:51;;;;;;;3.50;2.93;;;2.20;91.70;;;;;;5060089;28;20231;-86
2021/01/25 03:39:17;;;;;;;2.70;2.50;;;2.20;91.30;;;;;;5060418;28;20257;-87
2021/01/25 03:41:43;;;;;;;2.90;2.70;;;2.30;90.80;;;;;;5060124;28;20736;-88
2021/01/25 03:44:08;;;;;;;3.20;2.90;;;2.30;90.40;;;;;;5061122;28;20280;-88
2021/01/25 03:46:37;;;;;;;4.13;3.13;;;2.30;90.50;;;;;;5062519;28;20195;-89
2021/01/25 03:49:02;;;;;;;3.30;3.00;;;2.20;91.30;;;;;;5060334;28;20180;-88
2021/01/25 03:51:28;;;;;;;3.73;2.60;;;2.20;91.00;;;;;;5061500;28;20203;-88
2021/01/25 03:53:54;;;;;;;4.00;2.90;;;2.20;90.80;;;;;;5061666;28;20204;-87
2021/01/25 03:56:19;;;;;;;3.20;2.90;;;2.30;90.90;;;;;;5037625;28;20197;-86
2021/01/25 03:58:45;;;;;;;2.97;2.60;;;2.20;91.30;;;;;;5041389;28;20211;-87
2021/01/25 04:01:11;;;;;;;3.37;3.07;;;2.30;91.50;;;;;;5042585;28;20497;-90
2021/01/25 04:03:37;;;;;;;4.03;3.10;;;2.20;91.60;;;;;;5042638;28;20212;-89
2021/01/25 04:06:03;;;;;;;2.73;2.53;;;2.20;91.60;;;;;;5043396;28;20180;-87
2021/01/25 04:08:29;;;;;;;3.33;2.73;;;2.20;91.70;;;;;;5061682;28;20168;-88
2021/01/25 04:10:55;;;;;;;3.20;2.90;;;2.20;92.00;;;;;;5061418;28;20181;-87
2021/01/25 04:13:21;;;;;;;3.40;3.10;;;2.30;91.40;;;;;;5044778;28;20196;-87
2021/01/25 04:15:48;;;;;;;4.50;4.10;;;2.30;91.60;;;;;;5041515;28;20227;-88
2021/01/25 04:18:13;;;;;;;5.10;4.50;;;2.10;92.60;;;;;;5041364;28;20670;-87
2021/01/25 04:20:39;;;;;;;5.57;5.07;;;2.00;93.80;;;;;;5041582;28;20177;-86
2021/01/25 04:23:05;;;;;;;5.40;4.70;;;1.70;95.50;;;;;;5041232;28;20181;-87
2021/01/25 04:25:30;;;;;;;6.50;5.90;;;1.80;95.40;;;;;;5043781;28;20204;-86
2021/01/25 04:27:56;;;;;;;7.47;6.47;;;1.70;95.60;;;;;;5044635;28;20177;-87
2021/01/25 04:30:22;;;;;;;7.10;6.40;;;1.70;96.20;;;;;;5026461;28;20185;-88
2021/01/25 04:32:47;;;;;;;10.33;7.23;;;1.70;96.30;;;;;;5045351;28;20169;-89
2021/01/25 04:35:15;;;;;;;7.97;7.27;;;1.70;95.70;;;;;;5045360;28;20209;-88
2021/01/25 04:37:42;;;;;;;7.87;6.10;;;1.60;96.80;;;;;;5047002;28;20807;-87
2021/01/25 04:40:10;;;;;;;5.50;4.90;;;1.50;97.60;;;;;;5046809;28;20177;-87
2021/01/25 04:42:37;;;;;;;6.00;5.23;;;1.40;98.50;;;;;;5065329;28;20211;-87
2021/01/25 04:45:05;;;;;;;4.27;3.87;;;1.40;98.80;;;;;;5065830;28;20216;-86
2021/01/25 04:47:31;;;;;;;6.90;4.43;;;1.50;98.80;;;;;;5066730;28;20175;-87
2021/01/25 04:49:57;;;;;;;4.17;3.77;;;1.50;98.90;;;;;;5076400;28;20168;-88
2021/01/25 04:52:23;;;;;;;5.00;3.90;;;1.50;99.10;;;;;;5048096;28;20184;-87
2021/01/25 04:54:51;;;;;;;4.73;3.80;;;1.50;98.50;;;;;;5065594;28;20207;-86
2021/01/25 04:57:17;;;;;;;4.30;3.90;;;1.40;99.30;;;;;;5051968;28;20180;-87
2021/01/25 04:59:44;;;;;;;5.50;4.30;;;1.50;98.40;;;;;;5045358;28;20200;-87
2021/01/25 05:02:11;;;;;;;4.67;4.27;;;1.50;98.20;;;;;;5045570;28;20211;-88
2021/01/25 05:04:37;;;;;;;5.43;4.10;;;1.50;98.80;;;;;;5044968;28;20607;-87
2021/01/25 05:07:04;;;;;;;4.40;4.00;;;1.60;98.10;;;;;;5046280;28;20200;-87
2021/01/25 05:09:29;;;;;;;3.93;3.60;;;1.70;97.50;;;;;;5046052;28;20202;-87
2021/01/25 05:11:59;;;;;;;4.63;3.70;;;1.80;96.70;;;;;;5046302;28;20204;-88
2021/01/25 05:14:24;;;;;;;4.13;3.80;;;1.90;96.40;;;;;;5046445;28;20220;-87
2021/01/25 05:16:51;;;;;;;4.00;3.70;;;1.80;96.20;;;;;;5046158;28;20192;-86
2021/01/25 05:19:17;;;;;;;4.27;3.97;;;1.90;95.90;;;;;;5045209;28;20269;-88
2021/01/25 05:21:45;;;;;;;4.27;3.87;;;1.90;95.50;;;;;;5032486;28;20189;-87
2021/01/25 05:24:12;;;;;;;4.80;4.40;;;1.90;95.40;;;;;;5044864;28;20722;-88
2021/01/25 05:26:54;;;;;;;4.90;4.40;;;1.80;95.90;;;;;;5045375;28;20323;-87
2021/01/25 05:29:28;;;;;;;4.70;4.30;;;1.70;97.50;;;;;;5034649;28;20219;-87
2021/01/25 05:31:55;;;;;;;4.17;3.87;;;1.70;97.50;;;;;;5045484;28;20185;-87
2021/01/25 05:34:22;;;;;;;4.30;3.90;;;1.80;97.10;;;;;;5029693;28;20679;-87
2021/01/25 05:36:49;;;;;;;4.33;3.97;;;1.90;96.70;;;;;;5065054;28;20188;-87
2021/01/25 05:39:17;;;;;;;4.70;4.30;;;1.90;96.30;;;;;;5064710;28;20176;-89
2021/01/25 05:41:57;;;;;;;4.33;3.93;;;2.00;95.00;;;;;;5034789;28;20200;-88
2021/01/25 05:44:23;;;;;;;4.10;3.80;;;2.00;95.00;;;;;;5044930;28;20743;-86
2021/01/25 05:46:49;;;;;;;4.57;4.17;;;2.10;95.30;;;;;;5046819;28;20193;-87
2021/01/25 05:49:25;;;;;;;3.90;3.60;;;2.10;94.40;;;;;;5047401;28;20262;-87
2021/01/25 05:51:54;;;;;;;4.93;3.93;;;2.10;94.50;;;;;;5064583;28;20171;-87
2021/01/25 05:54:24;;;;;;;4.07;3.77;;;2.10;94.00;;;;;;5065428;28;20204;-87
2021/01/25 05:56:51;;;;;;;3.63;3.33;;;2.00;95.20;;;;;;5064249;28;20180;-87
2021/01/25 05:59:17;;;;;;;4.03;3.73;;;2.10;95.60;;;;;;5031622;28;20201;-87
2021/01/25 06:01:43;;;;;;;3.67;3.37;;;2.10;94.70;;;;;;5023096;28;20201;-87
2021/01/25 06:04:16;;;;;;;4.00;3.40;;;2.10;95.00;;;;;;5024676;28;20212;-86
2021/01/25 06:07:04;;;;;;;3.87;3.47;;;2.00;95.10;;;;;;5006367;28;20184;-87
2021/01/25 06:09:40;;;;;;;4.07;3.60;;;2.00;95.90;;;;;;5041642;28;20180;-87
2021/01/25 06:12:07;;;;;;;3.70;3.40;;;2.10;95.90;;;;;;5052355;28;20172;-87
2021/01/25 06:14:47;;;;;;;4.10;3.80;;;2.10;95.20;;;;;;5071998;28;20699;-87
2021/01/25 06:17:16;;;;;;;4.00;3.70;;;2.20;94.80;;;;;;5060492;28;20325;-87
2021/01/25 06:19:42;;;;;;;4.00;3.70;;;2.20;95.10;;;;;;5064656;28;20191;-87
2021/01/25 06:22:10;;;;;;;4.20;3.80;;;2.10;95.30;;;;;;5057887;28;20189;-87
2021/01/25 06:24:38;;;;;;;4.57;4.17;;;2.00;95.60;;;;;;5044654;28;20212;-86
2021/01/25 06:27:05;;;;;;;4.50;4.10;;;1.90;96.80;;;;;;5045275;28;20211;-88
2021/01/25 06:29:31;;;;;;;4.87;4.47;;;1.90;96.80;;;;;;5045232;28;20227;-87
2021/01/25 06:32:00;;;;;;;6.07;4.83;;;1.90;96.50;;;;;;5045219;28;20173;-87
2021/01/25 06:34:26;;;;;;;6.23;5.63;;;2.00;95.90;;;;;;5044163;28;20219;-86
2021/01/25 06:36:52;;;;;;;6.33;5.60;;;2.00;95.70;;;;;;5044693;28;20188;-87
2021/01/25 06:39:26;;;;;;;7.57;6.77;;;2.00;96.10;;;;;;5044514;28;20207;-87
2021/01/25 06:42:00;;;;;;;11.83;10.73;;;2.00;96.10;;;;;;5044714;28;20587;-87
2021/01/25 06:44:27;;;;;;;5.67;5.17;;;2.10;95.80;;;;;;5037961;28;20641;-88
2021/01/25 06:46:56;;;;;;;6.63;5.93;;;2.10;95.30;;;;;;5064534;28;20575;-88
2021/01/25 06:49:24;;;;;;;7.13;6.53;;;2.10;95.30;;;;;;5046730;28;20184;-88
2021/01/25 06:51:51;;;;;;;6.40;5.80;;;1.90;96.50;;;;;;5063916;28;20701;-88
2021/01/25 06:54:21;;;;;;;6.30;5.70;;;1.90;96.80;;;;;;5049932;28;20209;-88
2021/01/25 06:56:58;;;;;;;6.33;5.77;;;1.80;97.90;;;;;;5042898;28;20192;-88
2021/01/25 06:59:30;;;;;;;6.70;6.10;;;1.70;98.30;;;;;;5044103;28;20287;-88
2021/01/25 07:01:57;;;;;;;5.97;5.40;;;1.60;98.20;;;;;;5062927;28;20180;-88
2021/01/25 07:04:25;;;;;;;6.30;5.70;;;1.60;99.00;;;;;;5064169;28;20220;-87
2021/01/25 07:06:55;;;;;;;6.47;5.87;;;1.60;98.60;;;;;;5049949;28;20207;-87
2021/01/25 07:09:29;;;;;;;6.50;5.90;;;1.60;98.60;;;;;;5026864;28;20180;-87
2021/01/25 07:12:04;;;;;;;6.50;5.90;;;1.50;99.20;;;;;;5044223;28;20185;-88
2021/01/25 07:14:32;;;;;;;7.10;6.40;;;1.60;99.10;;;;;;5044802;28;20239;-88
2021/01/25 07:16:58;;;;;;;6.70;6.10;;;1.50;99.60;;;;;;5044303;28;20183;-89
2021/01/25 07:19:25;;;;;;;6.77;6.17;;;1.50;99.60;;;;;;5044534;28;20204;-88
2021/01/25 07:21:52;;;;;;;6.37;5.77;;;1.40;99.90;;;;;;5043520;28;20173;-88
2021/01/25 07:24:21;;;;;;;7.03;6.13;;;1.30;99.90;;;;;;5027660;28;20220;-88
2021/01/25 07:26:58;;;;;;;7.20;6.53;;;1.50;99.90;;;;;;5026124;28;20184;-88
2021/01/25 07:29:25;;;;;;;7.10;6.40;;;1.60;99.80;;;;;;5043341;28;20180;-88
2021/01/25 07:31:52;;;;;;;6.53;5.93;;;1.50;99.30;;;;;;5043318;28;20173;-88
2021/01/25 07:34:18;;;;;;;9.43;7.07;;;1.50;99.80;;;;;;5040637;28;20231;-89
2021/01/25 07:36:44;;;;;;;8.40;7.27;;;1.40;99.90;;;;;;5045772;28;20200;-88
2021/01/25 07:39:13;;;;;;;8.03;7.33;;;1.40;99.90;;;;;;5036297;28;20195;-88
2021/01/25 07:41:39;;;;;;;8.57;7.77;;;1.40;99.90;;;;;;5006526;28;20197;-89
2021/01/25 07:44:07;;;;;;;10.27;8.83;;;1.30;99.90;;;;;;5036907;28;20295;-89
2021/01/25 07:46:33;;;;;;;9.00;8.10;;;1.30;99.90;;;;;;5042458;28;20185;-89
2021/01/25 07:48:59;;;;;;;8.10;7.30;;;1.40;99.90;;;;;;5049296;28;20181;-89
2021/01/25 07:51:32;;;;;;;7.70;7.00;;;1.40;99.90;;;;;;5025849;28;20193;-89
2021/01/25 07:53:58;;;;;;;8.17;7.30;;;1.40;99.90;;;;;;5044487;28;20212;-88
2021/01/25 07:56:25;;;;;;;8.80;8.00;;;1.40;99.90;;;;;;5043908;28;20517;-89
2021/01/25 07:59:07;;;;;;;8.00;7.30;;;1.40;99.90;;;;;;5041895;28;20267;-88
2021/01/25 08:01:40;;;;;;;8.27;7.47;;;1.50;99.90;;;;;;5043553;28;20207;-88
2021/01/25 08:04:09;;;;;;;8.33;7.23;;;1.40;99.90;;;;;;5038741;28;20284;-88
2021/01/25 08:06:35;;;;;;;8.40;7.07;;;1.30;99.90;;;;;;5044148;28;20177;-89
2021/01/25 08:09:05;;;;;;;8.47;7.67;;;1.30;99.90;;;;;;5028754;28;20713;-89
2021/01/25 08:11:33;;;;;;;7.70;7.00;;;1.20;99.90;;;;;;5038702;28;20189;-88
2021/01/25 08:14:22;;;;;;;7.83;7.07;;;1.20;99.90;;;;;;5039504;28;20232;-88
2021/01/25 08:17:07;;;;;;;7.73;7.03;;;1.20;99.90;;;;;;5029686;28;20200;-89
2021/01/25 08:19:46;;;;;;;8.67;7.87;;;1.20;99.90;;;;;;5046299;28;20216;-88
2021/01/25 08:22:20;;;;;;;8.33;7.57;;;1.20;99.90;;;;;;5037713;28;20188;-88
2021/01/25 08:24:58;;;;;;;7.23;6.63;;;1.30;99.90;;;;;;5047939;28;20254;-87
2021/01/25 08:27:24;;;;;;;8.17;7.47;;;1.30;99.90;;;;;;5052139;28;20567;-88
2021/01/25 08:30:01;;;;;;;8.33;7.53;;;1.20;99.90;;;;;;5039040;28;20193;-88
2021/01/25 08:32:29;;;;;;;7.83;6.83;;;1.20;99.90;;;;;;5044673;28;20207;-87
2021/01/25 08:35:05;;;;;;;8.33;7.63;;;1.10;99.90;;;;;;5045742;28;20296;-88
2021/01/25 08:37:33;;;;;;;7.40;6.47;;;1.00;99.90;;;;;;5042478;28;20234;-89
2021/01/25 08:40:15;;;;;;;7.10;6.50;;;1.10;99.90;;;;;;5026170;28;20276;-89
2021/01/25 08:42:42;;;;;;;8.90;6.97;;;1.10;99.90;;;;;;5042444;28;20322;-89
2021/01/25 08:45:21;;;;;;;7.00;6.40;;;1.20;99.90;;;;;;5042414;28;20227;-89
2021/01/25 08:47:47;;;;;;;6.47;5.87;;;1.20;99.90;;;;;;5038260;28;20514;-89
2021/01/25 08:50:32;;;;;;;7.50;6.53;;;1.30;99.90;;;;;;5036823;28;20189;-88
2021/01/25 08:53:02;;;;;;;6.40;5.80;;;1.20;99.90;;;;;;5042151;28;20220;-89
2021/01/25 08:55:37;;;;;;;6.97;6.27;;;1.30;99.90;;;;;;5041256;28;20196;-88
2021/01/25 08:58:27;;;;;;;6.53;5.93;;;1.10;99.90;;;;;;5049927;28;20184;-89
2021/01/25 09:00:53;;;;;;;6.53;5.87;;;1.20;99.90;;;;;;5043811;28;20204;-89
2021/01/25 09:03:20;;;;;;;6.47;5.87;;;1.20;99.90;;;;;;5034201;28;20239;-88
2021/01/25 09:05:47;;;;;;;6.30;5.70;;;1.20;99.90;;;;;;5029790;28;20212;-88
2021/01/25 09:08:12;;;;;;;5.90;5.40;;;1.40;99.90;;;;;;5029417;28;20181;-88
2021/01/25 09:10:38;;;;;;;6.23;5.67;;;1.30;99.90;;;;;;5042758;28;20224;-89
2021/01/25 09:13:04;;;;;;;6.40;5.67;;;1.30;99.90;;;;;;5038947;28;20214;-89
2021/01/25 09:15:30;;;;;;;5.80;5.30;;;1.40;99.90;;;;;;5046455;28;20694;-89
2021/01/25 09:17:57;;;;;;;6.40;5.80;;;1.40;99.90;;;;;;5043043;28;20213;-90
2021/01/25 09:20:23;;;;;;;6.87;5.27;;;1.30;99.90;;;;;;5043470;28;20200;-88
2021/01/25 09:22:49;;;;;;;5.47;4.97;;;1.40;99.90;;;;;;5034198;28;20198;-88
2021/01/25 09:25:16;;;;;;;5.70;5.10;;;1.40;99.90;;;;;;5046978;28;20218;-89
2021/01/25 09:27:43;;;;;;;5.70;5.20;;;1.40;99.90;;;;;;5053709;28;20185;-88
2021/01/25 09:30:11;;;;;;;5.80;5.20;;;1.50;99.90;;;;;;5049543;28;20185;-87
2021/01/25 09:32:37;;;;;;;5.40;4.57;;;1.50;99.90;;;;;;5020589;28;20209;-88
2021/01/25 09:35:05;;;;;;;4.93;4.43;;;1.60;99.90;;;;;;5044007;28;20209;-88
2021/01/25 09:37:30;;;;;;;4.80;4.30;;;1.70;99.90;;;;;;5036619;28;20587;-89
2021/01/25 09:39:56;;;;;;;6.10;5.10;;;1.60;99.90;;;;;;5046399;28;20231;-90
2021/01/25 09:42:22;;;;;;;5.53;4.93;;;1.50;99.90;;;;;;5039258;28;20268;-90
2021/01/25 09:44:49;;;;;;;6.70;5.20;;;1.50;99.90;;;;;;5038772;28;20221;-89
2021/01/25 09:47:16;;;;;;;5.07;4.67;;;1.60;99.90;;;;;;5037185;28;20185;-89
2021/01/25 09:49:41;;;;;;;6.10;5.10;;;1.60;99.90;;;;;;5044325;28;20215;-88
2021/01/25 09:52:07;;;;;;;5.87;5.20;;;1.60;99.90;;;;;;5027199;28;20188;-90
2021/01/25 09:54:33;;;;;;;5.13;4.60;;;1.60;99.90;;;;;;5042627;28;20733;-90
2021/01/25 09:56:58;;;;;;;5.47;4.97;;;1.60;99.90;;;;;;5027734;28;20612;-89
2021/01/25 09:59:24;;;;;;;5.67;5.13;;;1.60;99.90;;;;;;5040337;28;20188;-89
2021/01/25 10:01:50;;;;;;;5.37;4.87;;;1.70;99.90;;;;;;5043447;28;20223;-89
2021/01/25 10:04:15;;;;;;;6.27;5.17;;;1.70;99.90;;;;;;5046972;28;20221;-89
2021/01/25 10:06:41;;;;;;;5.20;4.70;;;1.70;99.90;;;;;;5045109;28;20177;-89
2021/01/25 10:09:07;;;;;;;5.93;4.80;;;1.70;99.90;;;;;;5042652;28;20189;-88
2021/01/25 10:11:33;;;;;;;5.23;4.57;;;1.70;99.90;;;;;;5045061;28;20212;-89
2021/01/25 10:13:58;;;;;;;4.93;4.43;;;1.90;99.90;;;;;;5044817;28;20221;-89
2021/01/25 10:16:24;;;;;;;5.67;4.70;;;1.90;99.90;;;;;;5045564;28;20211;-89
2021/01/25 10:18:50;;;;;;;4.83;4.20;;;1.90;99.90;;;;;;5045622;28;20186;-90
2021/01/25 10:21:17;;;;;;;4.23;3.87;;;2.00;99.90;;;;;;5046009;28;20271;-89
2021/01/25 10:23:46;;;;;;;4.63;4.20;;;2.10;99.90;;;;;;5044769;28;20264;-90
2021/01/25 10:26:13;;;;;;;5.43;4.93;;;2.00;99.90;;;;;;5045846;28;20551;-90
2021/01/25 10:28:39;;;;;;;5.80;5.23;;;2.00;99.90;;;;;;5045955;28;20185;-90
2021/01/25 10:31:04;;;;;;;6.30;5.23;;;1.90;99.90;;;;;;5044248;28;20244;-90
2021/01/25 10:33:30;;;;;;;5.83;5.20;;;1.80;99.90;;;;;;5043798;28;20214;-90
2021/01/25 10:35:55;;;;;;;5.20;4.70;;;1.70;99.90;;;;;;5043532;28;20205;-89
2021/01/25 10:38:21;;;;;;;5.30;4.73;;;1.70;99.90;;;;;;5026173;28;20196;-89
2021/01/25 10:40:47;;;;;;;5.57;5.07;;;1.80;99.90;;;;;;5044881;28;20181;-89
2021/01/25 10:43:20;;;;;;;6.30;5.23;;;1.70;99.90;;;;;;5078222;27;20591;-91
2021/01/25 10:45:45;;;;;;;5.33;4.83;;;1.70;99.90;;;;;;5053883;28;20187;-91
2021/01/25 10:48:11;;;;;;;5.27;4.77;;;1.80;99.90;;;;;;5054890;28;20200;-90
2021/01/25 10:50:37;;;;;;;5.27;4.77;;;1.80;99.90;;;;;;5056352;28;20189;-91
2021/01/25 10:53:03;;;;;;;5.80;5.20;;;1.70;99.90;;;;;;5054615;28;20184;-91
2021/01/25 10:55:29;;;;;;;5.93;5.33;;;1.70;99.90;;;;;;5059658;28;20196;-90
2021/01/25 10:57:54;;;;;;;6.33;5.73;;;1.60;99.90;;;;;;5060135;28;20180;-91
2021/01/25 11:00:22;;;;;;;10.07;9.07;;;1.60;99.90;;;;;;5059254;28;20267;-91
2021/01/25 11:02:48;;;;;;;5.37;4.77;;;1.80;99.90;;;;;;5055222;28;20196;-91
2021/01/25 11:05:17;;;;;;;4.87;4.30;;;1.80;99.90;;;;;;5060714;28;20648;-90
2021/01/25 11:07:43;;;;;;;5.57;4.90;;;1.70;99.90;;;;;;5057856;28;20191;-89
2021/01/25 11:10:12;;;;;;;5.67;5.17;;;1.70;99.90;;;;;;5063606;28;20525;-89
2021/01/25 11:12:38;;;;;;;6.87;5.20;;;1.70;99.90;;;;;;5058773;28;20252;-90
2021/01/25 11:15:07;;;;;;;5.97;5.37;;;1.80;99.90;;;;;;5059826;28;20211;-90
2021/01/25 11:17:33;;;;;;;5.77;5.13;;;1.60;99.90;;;;;;5043043;28;20264;-91
2021/01/25 11:19:59;;;;;;;6.03;5.07;;;1.70;99.90;;;;;;5046919;28;20184;-90
2021/01/25 11:22:25;;;;;;;5.53;5.03;;;1.60;99.90;;;;;;5047296;28;20565;-92
2021/01/25 11:24:51;;;;;;;5.23;4.73;;;1.60;99.90;;;;;;5055356;28;20197;-90
2021/01/25 11:27:18;;;;;;;5.40;4.90;;;1.70;99.90;;;;;;5053171;28;20200;-91
2021/01/25 11:29:44;;;;;;;5.87;5.37;;;1.60;99.90;;;;;;5058240;28;20196;-91
2021/01/25 11:32:10;;;;;;;6.13;4.93;;;1.50;99.90;;;;;;5058489;28;20244;-91
2021/01/25 11:34:37;;;;;;;5.67;4.47;;;1.60;99.90;;;;;;5051521;28;20201;-92
2021/01/25 11:37:03;;;;;;;5.03;4.47;;;1.60;99.90;;;;;;5057544;28;20211;-91
2021/01/25 11:39:30;;;;;;;5.00;4.43;;;1.60;99.90;;;;;;5057219;28;20176;-91
2021/01/25 11:41:56;;;;;;;5.53;5.03;;;1.60;99.90;;;;;;5047299;28;20224;-91
2021/01/25 11:44:22;;;;;;;5.77;4.93;;;1.60;99.90;;;;;;5053986;28;20226;-91
2021/01/25 11:46:48;;;;;;;5.57;5.07;;;1.50;99.90;;;;;;5056745;28;20207;-92
2021/01/25 11:49:15;;;;;;;5.07;4.57;;;1.60;99.90;;;;;;5058439;28;20744;-90
2021/01/25 11:51:43;;;;;;;4.97;4.50;;;1.60;99.90;;;;;;5058540;28;20227;-90
2021/01/25 11:54:10;;;;;;;5.60;4.30;;;1.70;99.90;;;;;;5039204;28;20224;-91
2021/01/25 11:56:35;;;;;;;4.90;4.40;;;1.90;99.90;;;;;;5041112;28;20227;-90
2021/01/25 11:59:01;;;;;;;5.33;4.30;;;1.90;99.90;;;;;;5033693;28;20185;-90
2021/01/25 12:01:30;;;;;;;4.83;4.43;;;1.90;99.90;;;;;;5039239;28;20212;-89
2021/01/25 12:03:56;;;;;;;5.87;4.80;;;2.00;99.90;;;;;;5036759;28;20701;-89
2021/01/25 12:06:22;;;;;;;4.93;4.47;;;2.20;99.90;;;;;;5039067;28;20249;-89
2021/01/25 12:08:47;;;;;;;5.53;4.93;;;2.20;99.90;;;;;;5037632;28;20277;-89
2021/01/25 12:11:13;;;;;;;4.97;4.47;;;2.20;99.90;;;;;;5038975;28;20197;-89
2021/01/25 12:13:40;;;;;;;5.80;5.20;;;2.20;99.90;;;;;;5036488;28;20285;-90
2021/01/25 12:16:06;;;;;;;4.87;4.30;;;2.20;99.90;;;;;;5021489;28;20669;-91
2021/01/25 12:18:32;;;;;;;4.90;4.50;;;2.40;99.90;;;;;;5039603;28;20286;-90
2021/01/25 12:20:58;;;;;;;5.47;4.80;;;2.30;99.90;;;;;;5043132;28;20193;-90
2021/01/25 12:23:24;;;;;;;5.57;4.73;;;2.30;99.90;;;;;;5020801;28;20196;-89
2021/01/25 12:25:50;;;;;;;5.40;4.90;;;2.30;99.90;;;;;;5031373;28;20200;-89
2021/01/25 12:28:16;;;;;;;5.20;4.47;;;2.30;99.90;;;;;;5033472;28;20229;-90
2021/01/25 12:30:42;;;;;;;7.93;5.27;;;2.20;99.90;;;;;;5040713;28;20268;-90
2021/01/25 12:33:08;;;;;;;7.33;5.47;;;2.20;99.90;;;;;;5039192;28;20193;-90
2021/01/25 12:35:34;;;;;;;5.47;4.97;;;2.10;99.90;;;;;;5038705;28;20572;-90
2021/01/25 12:38:00;;;;;;;6.53;4.80;;;2.10;99.90;;;;;;5037209;28;20204;-90
2021/01/25 12:40:26;;;;;;;5.53;4.53;;;2.20;99.90;;;;;;5042100;28;20188;-89
2021/01/25 12:42:53;;;;;;;5.20;4.63;;;2.30;99.90;;;;;;5034707;28;20249;-90
2021/01/25 12:45:22;;;;;;;5.87;5.27;;;2.30;99.90;;;;;;5034522;28;20213;-90
2021/01/25 12:47:48;;;;;;;5.40;4.77;;;2.10;99.90;;;;;;5042536;28;20191;-90
2021/01/25 12:50:14;;;;;;;6.37;4.97;;;2.30;99.90;;;;;;5042443;28;20216;-90
2021/01/25 12:52:40;;;;;;;5.43;4.93;;;2.40;99.90;;;;;;5040740;28;20181;-90
2021/01/25 12:55:09;;;;;;;4.90;4.47;;;2.50;99.90;;;;;;5042014;28;20211;-90
2021/01/25 12:57:43;;;;;;;6.90;4.90;;;2.60;99.90;;;;;;5037654;28;20194;-89
2021/01/25 13:00:14;;;;;;;7.03;4.57;;;2.60;99.90;;;;;;5020684;28;20248;-90